sensor_id;sensor_type;location;lat;lon;timestamp;pressure;altitude;pressure_sealevel;temperature;humidity
16793;BME280;8513;42.662;23.350;2022-12-18T00:02:20;95651.88;;;8.31;67.76
16793;BME280;8513;42.662;23.350;2022-12-18T00:04:47;95657.50;;;8.26;67.16
16793;BME280;8513;42.662;23.350;2022-12-18T00:07:12;95647.38;;;8.22;67.64
16793;BME280;8513;42.662;23.350;2022-12-18T00:09:38;95653.59;;;8.21;67.80
16793;BME280;8513;42.662;23.350;2022-12-18T00:12:03;95652.78;;;7.86;67.96
16793;BME280;8513;42.662;23.350;2022-12-18T00:14:29;95651.56;;;7.90;68.22
16793;BME280;8513;42.662;23.350;2022-12-18T00:16:54;95649.16;;;8.10;67.43
16793;BME280;8513;42.662;23.350;2022-12-18T00:19:20;95664.44;;;8.16;66.98
16793;BME280;8513;42.662;23.350;2022-12-18T00:21:45;95668.72;;;8.06;67.51
16793;BME280;8513;42.662;23.350;2022-12-18T00:24:11;95672.06;;;8.08;67.41
16793;BME280;8513;42.662;23.350;2022-12-18T00:26:38;95674.91;;;8.16;66.98
16793;BME280;8513;42.662;23.350;2022-12-18T00:29:13;95674.69;;;8.08;67.36
16793;BME280;8513;42.662;23.350;2022-12-18T00:31:42;95675.28;;;8.00;67.22
16793;BME280;8513;42.662;23.350;2022-12-18T00:34:10;95682.75;;;7.93;67.49
16793;BME280;8513;42.662;23.350;2022-12-18T00:36:37;95680.63;;;7.99;67.02
16793;BME280;8513;42.662;23.350;2022-12-18T00:39:04;95678.72;;;7.89;67.24
16793;BME280;8513;42.662;23.350;2022-12-18T00:41:30;95678.97;;;7.86;67.49
16793;BME280;8513;42.662;23.350;2022-12-18T00:44:16;95677.91;;;7.89;67.49
16793;BME280;8513;42.662;23.350;2022-12-18T00:46:42;95681.31;;;7.67;68.15
16793;BME280;8513;42.662;23.350;2022-12-18T00:49:08;95692.03;;;7.75;68.16
16793;BME280;8513;42.662;23.350;2022-12-18T00:51:34;95688.00;;;7.82;67.42
16793;BME280;8513;42.662;23.350;2022-12-18T00:54:00;95688.97;;;7.70;68.13
16793;BME280;8513;42.662;23.350;2022-12-18T00:56:25;95700.84;;;7.74;67.70
16793;BME280;8513;42.662;23.350;2022-12-18T00:58:51;95696.22;;;7.89;66.93
16793;BME280;8513;42.662;23.350;2022-12-18T01:01:17;95700.84;;;7.85;67.28
16793;BME280;8513;42.662;23.350;2022-12-18T01:03:42;95702.53;;;7.98;66.55
16793;BME280;8513;42.662;23.350;2022-12-18T01:06:12;95695.63;;;7.97;66.86
16793;BME280;8513;42.662;23.350;2022-12-18T01:08:38;95713.50;;;8.03;66.37
16793;BME280;8513;42.662;23.350;2022-12-18T01:11:12;95713.25;;;7.94;66.50
16793;BME280;8513;42.662;23.350;2022-12-18T01:13:39;95715.34;;;7.67;66.56
16793;BME280;8513;42.662;23.350;2022-12-18T01:16:04;95712.97;;;7.64;67.02
16793;BME280;8513;42.662;23.350;2022-12-18T01:18:30;95721.88;;;7.61;66.84
16793;BME280;8513;42.662;23.350;2022-12-18T01:20:55;95716.53;;;7.63;67.19
16793;BME280;8513;42.662;23.350;2022-12-18T01:23:21;95721.63;;;7.53;67.02
16793;BME280;8513;42.662;23.350;2022-12-18T01:25:46;95717.91;;;7.33;66.96
16793;BME280;8513;42.662;23.350;2022-12-18T01:28:12;95721.50;;;7.43;66.79
16793;BME280;8513;42.662;23.350;2022-12-18T01:30:37;95727.88;;;7.28;66.79
16793;BME280;8513;42.662;23.350;2022-12-18T01:33:06;95724.78;;;7.34;66.55
16793;BME280;8513;42.662;23.350;2022-12-18T01:35:31;95724.47;;;7.50;65.90
16793;BME280;8513;42.662;23.350;2022-12-18T01:37:57;95730.44;;;7.52;65.82
16793;BME280;8513;42.662;23.350;2022-12-18T01:40:23;95738.22;;;7.29;66.29
16793;BME280;8513;42.662;23.350;2022-12-18T01:42:52;95732.78;;;7.33;66.27
16793;BME280;8513;42.662;23.350;2022-12-18T01:47:47;95732.22;;;7.16;66.38
16793;BME280;8513;42.662;23.350;2022-12-18T01:52:41;95749.97;;;7.24;66.24
16793;BME280;8513;42.662;23.350;2022-12-18T01:55:10;95735.13;;;7.24;65.99
16793;BME280;8513;42.662;23.350;2022-12-18T01:57:37;95740.97;;;7.28;65.85
16793;BME280;8513;42.662;23.350;2022-12-18T02:00:13;95741.59;;;7.07;66.38
16793;BME280;8513;42.662;23.350;2022-12-18T02:02:40;95751.00;;;6.86;67.26
16793;BME280;8513;42.662;23.350;2022-12-18T02:05:06;95741.16;;;6.90;66.94
16793;BME280;8513;42.662;23.350;2022-12-18T02:10:29;95752.09;;;6.71;67.75
16793;BME280;8513;42.662;23.350;2022-12-18T02:15:43;95746.28;;;6.91;67.33
16793;BME280;8513;42.662;23.350;2022-12-18T02:18:19;95749.72;;;6.92;67.37
16793;BME280;8513;42.662;23.350;2022-12-18T02:20:59;95758.34;;;7.05;66.67
16793;BME280;8513;42.662;23.350;2022-12-18T02:28:42;95765.66;;;7.24;65.88
16793;BME280;8513;42.662;23.350;2022-12-18T02:31:13;95755.16;;;7.13;65.90
16793;BME280;8513;42.662;23.350;2022-12-18T02:33:40;95771.75;;;7.24;65.65
16793;BME280;8513;42.662;23.350;2022-12-18T02:36:08;95767.34;;;7.25;65.35
16793;BME280;8513;42.662;23.350;2022-12-18T02:38:35;95766.44;;;6.89;66.71
16793;BME280;8513;42.662;23.350;2022-12-18T02:41:02;95777.88;;;6.88;66.31
16793;BME280;8513;42.662;23.350;2022-12-18T02:43:29;95785.25;;;6.94;66.12
16793;BME280;8513;42.662;23.350;2022-12-18T02:45:57;95772.69;;;6.99;66.26
16793;BME280;8513;42.662;23.350;2022-12-18T02:48:28;95776.78;;;7.03;65.93
16793;BME280;8513;42.662;23.350;2022-12-18T02:51:37;95775.16;;;7.14;65.48
16793;BME280;8513;42.662;23.350;2022-12-18T02:54:17;95776.50;;;6.95;65.56
16793;BME280;8513;42.662;23.350;2022-12-18T02:56:50;95788.25;;;6.77;66.30
16793;BME280;8513;42.662;23.350;2022-12-18T02:59:21;95784.19;;;6.97;65.58
16793;BME280;8513;42.662;23.350;2022-12-18T03:02:23;95793.28;;;6.80;66.45
16793;BME280;8513;42.662;23.350;2022-12-18T03:05:05;95786.34;;;6.79;66.30
16793;BME280;8513;42.662;23.350;2022-12-18T03:07:55;95782.84;;;6.67;66.50
16793;BME280;8513;42.662;23.350;2022-12-18T03:10:29;95788.91;;;6.68;66.58
16793;BME280;8513;42.662;23.350;2022-12-18T03:13:05;95796.03;;;6.66;66.65
16793;BME280;8513;42.662;23.350;2022-12-18T03:15:37;95812.00;;;6.74;65.84
16793;BME280;8513;42.662;23.350;2022-12-18T03:18:10;95802.09;;;6.66;66.21
16793;BME280;8513;42.662;23.350;2022-12-18T03:20:39;95801.44;;;6.75;65.80
16793;BME280;8513;42.662;23.350;2022-12-18T03:23:13;95802.47;;;6.73;66.06
16793;BME280;8513;42.662;23.350;2022-12-18T03:25:44;95799.84;;;6.85;65.74
16793;BME280;8513;42.662;23.350;2022-12-18T03:28:13;95804.72;;;6.53;66.29
16793;BME280;8513;42.662;23.350;2022-12-18T03:30:41;95803.16;;;6.51;66.49
16793;BME280;8513;42.662;23.350;2022-12-18T03:33:13;95816.31;;;6.62;66.00
16793;BME280;8513;42.662;23.350;2022-12-18T03:35:43;95816.94;;;6.66;65.46
16793;BME280;8513;42.662;23.350;2022-12-18T03:38:09;95828.16;;;6.29;66.11
16793;BME280;8513;42.662;23.350;2022-12-18T03:46:11;95838.78;;;6.65;65.92
16793;BME280;8513;42.662;23.350;2022-12-18T03:48:52;95834.50;;;6.63;65.38
16793;BME280;8513;42.662;23.350;2022-12-18T03:54:02;95850.41;;;6.60;65.36
16793;BME280;8513;42.662;23.350;2022-12-18T03:56:31;95851.44;;;6.58;64.84
16793;BME280;8513;42.662;23.350;2022-12-18T03:58:59;95855.13;;;6.55;64.48
16793;BME280;8513;42.662;23.350;2022-12-18T04:01:37;95853.31;;;6.69;64.07
16793;BME280;8513;42.662;23.350;2022-12-18T04:04:10;95863.16;;;6.52;65.11
16793;BME280;8513;42.662;23.350;2022-12-18T04:06:38;95853.34;;;6.43;65.21
16793;BME280;8513;42.662;23.350;2022-12-18T04:09:05;95854.78;;;6.60;65.22
16793;BME280;8513;42.662;23.350;2022-12-18T04:11:31;95863.47;;;6.35;65.12
16793;BME280;8513;42.662;23.350;2022-12-18T04:13:57;95861.59;;;6.37;65.47
16793;BME280;8513;42.662;23.350;2022-12-18T04:16:24;95866.91;;;6.23;65.91
16793;BME280;8513;42.662;23.350;2022-12-18T04:18:50;95875.69;;;6.22;65.99
16793;BME280;8513;42.662;23.350;2022-12-18T04:21:16;95873.41;;;6.55;64.39
16793;BME280;8513;42.662;23.350;2022-12-18T04:23:41;95876.00;;;6.30;64.92
16793;BME280;8513;42.662;23.350;2022-12-18T04:26:06;95876.53;;;6.22;65.29
16793;BME280;8513;42.662;23.350;2022-12-18T04:28:32;95883.44;;;6.23;65.35
16793;BME280;8513;42.662;23.350;2022-12-18T04:30:57;95878.94;;;6.38;64.44
16793;BME280;8513;42.662;23.350;2022-12-18T04:33:23;95875.28;;;6.28;64.16
16793;BME280;8513;42.662;23.350;2022-12-18T04:35:48;95888.88;;;6.07;65.21
16793;BME280;8513;42.662;23.350;2022-12-18T04:38:14;95900.66;;;6.00;65.18
16793;BME280;8513;42.662;23.350;2022-12-18T04:40:40;95899.66;;;6.28;64.37
16793;BME280;8513;42.662;23.350;2022-12-18T04:43:06;95904.72;;;6.17;64.25
16793;BME280;8513;42.662;23.350;2022-12-18T04:45:32;95910.59;;;6.08;64.19
16793;BME280;8513;42.662;23.350;2022-12-18T04:47:58;95918.00;;;6.14;63.60
16793;BME280;8513;42.662;23.350;2022-12-18T04:50:24;95910.88;;;6.03;63.49
16793;BME280;8513;42.662;23.350;2022-12-18T04:52:49;95922.28;;;6.02;63.22
16793;BME280;8513;42.662;23.350;2022-12-18T04:55:15;95914.53;;;6.01;63.48
16793;BME280;8513;42.662;23.350;2022-12-18T04:57:40;95922.22;;;5.89;63.14
16793;BME280;8513;42.662;23.350;2022-12-18T05:00:06;95939.53;;;5.90;63.12
16793;BME280;8513;42.662;23.350;2022-12-18T05:02:32;95932.81;;;5.73;62.73
16793;BME280;8513;42.662;23.350;2022-12-18T05:04:58;95933.84;;;5.98;62.21
16793;BME280;8513;42.662;23.350;2022-12-18T05:07:23;95930.94;;;5.75;62.78
16793;BME280;8513;42.662;23.350;2022-12-18T05:09:49;95931.53;;;5.66;62.62
16793;BME280;8513;42.662;23.350;2022-12-18T05:12:14;95939.22;;;5.55;63.19
16793;BME280;8513;42.662;23.350;2022-12-18T05:14:40;95939.47;;;5.65;63.78
16793;BME280;8513;42.662;23.350;2022-12-18T05:17:05;95936.53;;;5.57;63.36
16793;BME280;8513;42.662;23.350;2022-12-18T05:19:30;95958.31;;;5.56;63.65
16793;BME280;8513;42.662;23.350;2022-12-18T05:21:56;95960.34;;;5.65;63.30
16793;BME280;8513;42.662;23.350;2022-12-18T05:24:22;95959.16;;;5.56;63.66
16793;BME280;8513;42.662;23.350;2022-12-18T05:26:48;95962.50;;;5.58;63.05
16793;BME280;8513;42.662;23.350;2022-12-18T05:29:13;95964.13;;;5.73;62.91
16793;BME280;8513;42.662;23.350;2022-12-18T05:31:39;95969.28;;;5.88;62.18
16793;BME280;8513;42.662;23.350;2022-12-18T05:34:04;95982.94;;;5.79;61.92
16793;BME280;8513;42.662;23.350;2022-12-18T05:36:30;95976.22;;;5.74;62.38
16793;BME280;8513;42.662;23.350;2022-12-18T05:38:56;95992.97;;;5.85;62.01
16793;BME280;8513;42.662;23.350;2022-12-18T05:41:21;95985.25;;;5.83;61.41
16793;BME280;8513;42.662;23.350;2022-12-18T05:43:47;95987.19;;;5.52;62.52
16793;BME280;8513;42.662;23.350;2022-12-18T05:46:14;95997.50;;;5.68;62.61
16793;BME280;8513;42.662;23.350;2022-12-18T05:48:41;95988.00;;;5.67;62.43
16793;BME280;8513;42.662;23.350;2022-12-18T05:51:10;95990.78;;;5.79;61.45
16793;BME280;8513;42.662;23.350;2022-12-18T05:53:36;95987.69;;;5.45;62.23
16793;BME280;8513;42.662;23.350;2022-12-18T05:56:04;95990.16;;;5.61;61.45
16793;BME280;8513;42.662;23.350;2022-12-18T05:58:31;95990.69;;;5.39;62.29
16793;BME280;8513;42.662;23.350;2022-12-18T06:00:57;96000.19;;;5.40;62.38
16793;BME280;8513;42.662;23.350;2022-12-18T06:03:22;95999.88;;;5.59;61.48
16793;BME280;8513;42.662;23.350;2022-12-18T06:05:48;96011.75;;;5.36;62.36
16793;BME280;8513;42.662;23.350;2022-12-18T06:08:13;96000.28;;;5.38;62.07
16793;BME280;8513;42.662;23.350;2022-12-18T06:10:40;96005.22;;;5.28;62.54
16793;BME280;8513;42.662;23.350;2022-12-18T06:13:06;96005.41;;;5.25;62.76
16793;BME280;8513;42.662;23.350;2022-12-18T06:15:31;96007.25;;;5.52;61.84
16793;BME280;8513;42.662;23.350;2022-12-18T06:17:57;96002.78;;;5.40;62.10
16793;BME280;8513;42.662;23.350;2022-12-18T06:20:23;96015.66;;;5.28;62.46
16793;BME280;8513;42.662;23.350;2022-12-18T06:22:48;96012.47;;;5.52;61.44
16793;BME280;8513;42.662;23.350;2022-12-18T06:25:14;96014.44;;;5.34;62.16
16793;BME280;8513;42.662;23.350;2022-12-18T06:27:40;96015.47;;;5.31;63.14
16793;BME280;8513;42.662;23.350;2022-12-18T06:30:06;96012.78;;;5.33;62.79
16793;BME280;8513;42.662;23.350;2022-12-18T06:32:32;96023.28;;;5.46;62.34
16793;BME280;8513;42.662;23.350;2022-12-18T06:34:57;96029.16;;;5.35;62.65
16793;BME280;8513;42.662;23.350;2022-12-18T06:37:23;96030.00;;;5.36;62.52
16793;BME280;8513;42.662;23.350;2022-12-18T06:39:54;96031.31;;;5.14;63.19
16793;BME280;8513;42.662;23.350;2022-12-18T06:42:21;96039.69;;;5.34;62.20
16793;BME280;8513;42.662;23.350;2022-12-18T06:44:47;96040.50;;;5.34;62.54
16793;BME280;8513;42.662;23.350;2022-12-18T06:47:12;96039.13;;;5.43;62.68
16793;BME280;8513;42.662;23.350;2022-12-18T06:49:38;96054.66;;;5.44;61.97
16793;BME280;8513;42.662;23.350;2022-12-18T06:52:03;96049.38;;;5.31;61.68
16793;BME280;8513;42.662;23.350;2022-12-18T06:54:28;96059.53;;;5.36;61.70
16793;BME280;8513;42.662;23.350;2022-12-18T06:56:54;96052.53;;;5.51;60.61
16793;BME280;8513;42.662;23.350;2022-12-18T06:59:19;96065.59;;;5.51;60.68
16793;BME280;8513;42.662;23.350;2022-12-18T07:01:45;96059.06;;;5.44;60.50
16793;BME280;8513;42.662;23.350;2022-12-18T07:04:10;96061.19;;;5.51;59.98
16793;BME280;8513;42.662;23.350;2022-12-18T07:06:36;96063.63;;;5.40;60.11
16793;BME280;8513;42.662;23.350;2022-12-18T07:09:01;96062.41;;;5.31;60.06
16793;BME280;8513;42.662;23.350;2022-12-18T07:11:27;96073.34;;;5.24;61.01
16793;BME280;8513;42.662;23.350;2022-12-18T07:13:52;96062.88;;;5.38;60.92
16793;BME280;8513;42.662;23.350;2022-12-18T07:16:22;96062.31;;;5.33;61.12
16793;BME280;8513;42.662;23.350;2022-12-18T07:18:48;96069.88;;;5.09;61.67
16793;BME280;8513;42.662;23.350;2022-12-18T07:21:15;96071.75;;;5.21;61.94
16793;BME280;8513;42.662;23.350;2022-12-18T07:23:41;96068.75;;;5.42;60.68
16793;BME280;8513;42.662;23.350;2022-12-18T07:26:11;96071.72;;;5.50;60.78
16793;BME280;8513;42.662;23.350;2022-12-18T07:28:38;96075.16;;;5.65;60.60
16793;BME280;8513;42.662;23.350;2022-12-18T07:31:13;96081.13;;;5.52;60.49
16793;BME280;8513;42.662;23.350;2022-12-18T07:33:39;96083.44;;;5.57;60.68
16793;BME280;8513;42.662;23.350;2022-12-18T07:36:06;96088.28;;;5.63;60.64
16793;BME280;8513;42.662;23.350;2022-12-18T07:38:33;96082.97;;;5.65;60.26
16793;BME280;8513;42.662;23.350;2022-12-18T07:41:10;96090.53;;;5.55;60.15
16793;BME280;8513;42.662;23.350;2022-12-18T07:43:37;96088.94;;;5.67;59.82
16793;BME280;8513;42.662;23.350;2022-12-18T07:46:03;96095.28;;;5.63;59.65
16793;BME280;8513;42.662;23.350;2022-12-18T07:48:29;96099.22;;;5.27;60.57
16793;BME280;8513;42.662;23.350;2022-12-18T07:51:01;96105.84;;;5.33;60.69
16793;BME280;8513;42.662;23.350;2022-12-18T07:53:28;96101.19;;;5.38;60.65
16793;BME280;8513;42.662;23.350;2022-12-18T07:55:57;96107.31;;;5.37;60.71
16793;BME280;8513;42.662;23.350;2022-12-18T07:58:23;96110.47;;;5.27;61.33
16793;BME280;8513;42.662;23.350;2022-12-18T08:00:48;96117.94;;;5.34;60.79
16793;BME280;8513;42.662;23.350;2022-12-18T08:03:14;96114.41;;;5.35;60.85
16793;BME280;8513;42.662;23.350;2022-12-18T08:05:39;96115.97;;;5.23;61.24
16793;BME280;8513;42.662;23.350;2022-12-18T08:08:05;96130.78;;;5.08;61.30
16793;BME280;8513;42.662;23.350;2022-12-18T08:10:30;96125.81;;;5.03;61.48
16793;BME280;8513;42.662;23.350;2022-12-18T08:12:56;96124.63;;;5.23;61.13
16793;BME280;8513;42.662;23.350;2022-12-18T08:15:21;96137.97;;;5.19;61.64
16793;BME280;8513;42.662;23.350;2022-12-18T08:17:47;96148.00;;;5.11;61.76
16793;BME280;8513;42.662;23.350;2022-12-18T08:20:12;96160.22;;;5.24;60.81
16793;BME280;8513;42.662;23.350;2022-12-18T08:22:43;96152.72;;;5.04;60.88
16793;BME280;8513;42.662;23.350;2022-12-18T08:25:08;96156.78;;;4.94;61.97
16793;BME280;8513;42.662;23.350;2022-12-18T08:27:34;96160.63;;;5.02;61.22
16793;BME280;8513;42.662;23.350;2022-12-18T08:30:00;96162.78;;;5.10;60.97
16793;BME280;8513;42.662;23.350;2022-12-18T08:32:27;96162.69;;;4.97;61.45
16793;BME280;8513;42.662;23.350;2022-12-18T08:34:53;96167.47;;;4.89;61.77
16793;BME280;8513;42.662;23.350;2022-12-18T08:37:18;96167.91;;;4.97;61.07
16793;BME280;8513;42.662;23.350;2022-12-18T08:39:44;96168.72;;;4.98;61.32
16793;BME280;8513;42.662;23.350;2022-12-18T08:42:09;96173.34;;;5.23;60.13
16793;BME280;8513;42.662;23.350;2022-12-18T08:44:53;96158.88;;;5.03;60.94
16793;BME280;8513;42.662;23.350;2022-12-18T08:47:19;96168.19;;;5.07;60.54
16793;BME280;8513;42.662;23.350;2022-12-18T08:49:44;96171.41;;;4.96;60.95
16793;BME280;8513;42.662;23.350;2022-12-18T08:52:10;96179.97;;;4.84;61.15
16793;BME280;8513;42.662;23.350;2022-12-18T08:54:36;96184.56;;;4.95;60.73
16793;BME280;8513;42.662;23.350;2022-12-18T08:57:01;96178.09;;;5.16;60.21
16793;BME280;8513;42.662;23.350;2022-12-18T08:59:28;96172.31;;;5.25;59.91
16793;BME280;8513;42.662;23.350;2022-12-18T09:01:54;96162.34;;;5.18;59.79
16793;BME280;8513;42.662;23.350;2022-12-18T09:04:20;96167.94;;;5.26;59.15
16793;BME280;8513;42.662;23.350;2022-12-18T09:06:46;96161.25;;;5.36;58.32
16793;BME280;8513;42.662;23.350;2022-12-18T09:09:11;96164.50;;;5.40;58.43
16793;BME280;8513;42.662;23.350;2022-12-18T09:11:37;96161.25;;;5.22;58.87
16793;BME280;8513;42.662;23.350;2022-12-18T09:14:02;96147.91;;;5.26;58.93
16793;BME280;8513;42.662;23.350;2022-12-18T09:16:29;96156.78;;;5.52;57.99
16793;BME280;8513;42.662;23.350;2022-12-18T09:18:55;96166.00;;;5.44;58.48
16793;BME280;8513;42.662;23.350;2022-12-18T09:21:26;96159.56;;;5.49;58.50
16793;BME280;8513;42.662;23.350;2022-12-18T09:23:53;96163.41;;;5.29;58.61
16793;BME280;8513;42.662;23.350;2022-12-18T09:26:22;96167.94;;;5.26;58.76
16793;BME280;8513;42.662;23.350;2022-12-18T09:28:48;96169.53;;;5.28;58.96
16793;BME280;8513;42.662;23.350;2022-12-18T09:31:14;96171.78;;;5.35;58.52
16793;BME280;8513;42.662;23.350;2022-12-18T09:33:40;96173.34;;;5.23;58.55
16793;BME280;8513;42.662;23.350;2022-12-18T09:36:08;96178.19;;;5.29;57.82
16793;BME280;8513;42.662;23.350;2022-12-18T09:38:35;96173.44;;;5.21;57.67
16793;BME280;8513;42.662;23.350;2022-12-18T09:41:05;96172.75;;;5.18;57.43
16793;BME280;8513;42.662;23.350;2022-12-18T09:43:40;96167.16;;;5.09;57.22
16793;BME280;8513;42.662;23.350;2022-12-18T09:46:17;96182.34;;;5.17;56.67
16793;BME280;8513;42.662;23.350;2022-12-18T09:48:47;96164.09;;;5.03;57.19
16793;BME280;8513;42.662;23.350;2022-12-18T09:51:18;96167.41;;;5.35;56.62
16793;BME280;8513;42.662;23.350;2022-12-18T09:53:50;96168.63;;;5.29;56.76
16793;BME280;8513;42.662;23.350;2022-12-18T09:56:19;96163.97;;;5.49;56.75
16793;BME280;8513;42.662;23.350;2022-12-18T09:59:15;96162.66;;;5.70;56.00
16793;BME280;8513;42.662;23.350;2022-12-18T10:01:43;96166.00;;;5.87;56.32
16793;BME280;8513;42.662;23.350;2022-12-18T10:04:08;96165.63;;;6.07;54.95
16793;BME280;8513;42.662;23.350;2022-12-18T10:06:36;96165.34;;;5.69;56.02
16793;BME280;8513;42.662;23.350;2022-12-18T10:09:13;96163.94;;;5.63;54.83
16793;BME280;8513;42.662;23.350;2022-12-18T10:20:01;96174.56;;;5.74;54.74
16793;BME280;8513;42.662;23.350;2022-12-18T10:28:14;96182.50;;;5.87;55.23
16793;BME280;8513;42.662;23.350;2022-12-18T10:30:41;96172.88;;;5.88;54.98
16793;BME280;8513;42.662;23.350;2022-12-18T10:33:11;96174.78;;;5.86;54.70
16793;BME280;8513;42.662;23.350;2022-12-18T10:35:40;96183.34;;;5.73;54.83
16793;BME280;8513;42.662;23.350;2022-12-18T10:40:57;96170.66;;;5.53;55.35
16793;BME280;8513;42.662;23.350;2022-12-18T10:43:34;96177.47;;;5.70;54.97
16793;BME280;8513;42.662;23.350;2022-12-18T10:51:26;96169.56;;;5.86;55.14
16793;BME280;8513;42.662;23.350;2022-12-18T10:56:31;96158.66;;;5.65;56.02
16793;BME280;8513;42.662;23.350;2022-12-18T10:59:01;96166.94;;;5.57;55.96
16793;BME280;8513;42.662;23.350;2022-12-18T11:01:44;96159.50;;;5.51;55.66
16793;BME280;8513;42.662;23.350;2022-12-18T11:04:17;96154.66;;;5.59;55.20
16793;BME280;8513;42.662;23.350;2022-12-18T11:06:54;96160.59;;;5.47;55.57
16793;BME280;8513;42.662;23.350;2022-12-18T11:09:26;96158.47;;;5.53;55.09
16793;BME280;8513;42.662;23.350;2022-12-18T11:11:54;96162.56;;;5.58;54.87
16793;BME280;8513;42.662;23.350;2022-12-18T11:14:24;96161.16;;;5.66;53.83
16793;BME280;8513;42.662;23.350;2022-12-18T11:16:51;96156.59;;;5.70;53.79
16793;BME280;8513;42.662;23.350;2022-12-18T11:21:46;96163.13;;;5.48;53.86
16793;BME280;8513;42.662;23.350;2022-12-18T11:24:35;96173.56;;;5.48;53.84
16793;BME280;8513;42.662;23.350;2022-12-18T11:27:05;96167.22;;;5.67;53.10
16793;BME280;8513;42.662;23.350;2022-12-18T11:29:40;96166.56;;;5.63;53.40
16793;BME280;8513;42.662;23.350;2022-12-18T11:32:21;96175.59;;;5.72;52.60
16793;BME280;8513;42.662;23.350;2022-12-18T11:35:14;96158.56;;;5.52;53.38
16793;BME280;8513;42.662;23.350;2022-12-18T11:37:40;96174.13;;;5.53;53.06
16793;BME280;8513;42.662;23.350;2022-12-18T11:40:20;96166.00;;;5.58;53.46
16793;BME280;8513;42.662;23.350;2022-12-18T11:42:50;96175.72;;;5.56;53.54
16793;BME280;8513;42.662;23.350;2022-12-18T11:47:55;96173.09;;;5.70;53.35
16793;BME280;8513;42.662;23.350;2022-12-18T11:50:52;96178.03;;;5.61;54.08
16793;BME280;8513;42.662;23.350;2022-12-18T11:53:18;96179.25;;;5.69;53.34
16793;BME280;8513;42.662;23.350;2022-12-18T12:01:40;96170.22;;;5.75;52.08
16793;BME280;8513;42.662;23.350;2022-12-18T12:12:31;96158.91;;;5.74;52.83
16793;BME280;8513;42.662;23.350;2022-12-18T12:25:46;96165.59;;;5.93;53.00
16793;BME280;8513;42.662;23.350;2022-12-18T12:39:47;96183.03;;;5.92;53.54
16793;BME280;8513;42.662;23.350;2022-12-18T12:42:23;96170.78;;;5.94;53.42
16793;BME280;8513;42.662;23.350;2022-12-18T12:45:20;96184.91;;;5.90;53.59
16793;BME280;8513;42.662;23.350;2022-12-18T12:47:48;96173.91;;;5.85;53.97
16793;BME280;8513;42.662;23.350;2022-12-18T12:50:18;96182.88;;;5.95;53.88
16793;BME280;8513;42.662;23.350;2022-12-18T12:52:48;96177.94;;;5.77;54.16
16793;BME280;8513;42.662;23.350;2022-12-18T12:55:21;96186.25;;;5.83;54.13
16793;BME280;8513;42.662;23.350;2022-12-18T13:00:58;96184.28;;;5.87;54.66
16793;BME280;8513;42.662;23.350;2022-12-18T13:08:59;96199.34;;;5.53;55.81
16793;BME280;8513;42.662;23.350;2022-12-18T13:14:36;96208.03;;;5.82;54.82
16793;BME280;8513;42.662;23.350;2022-12-18T13:17:34;96219.88;;;5.88;54.02
16793;BME280;8513;42.662;23.350;2022-12-18T13:23:17;96215.78;;;5.84;54.05
16793;BME280;8513;42.662;23.350;2022-12-18T13:25:28;96212.63;;;5.79;53.85
16793;BME280;8513;42.662;23.350;2022-12-18T13:28:16;96221.94;;;5.83;54.05
16793;BME280;8513;42.662;23.350;2022-12-18T13:30:47;96227.34;;;5.65;54.25
16793;BME280;8513;42.662;23.350;2022-12-18T13:35:41;96223.97;;;5.63;54.50
16793;BME280;8513;42.662;23.350;2022-12-18T13:38:42;96231.47;;;5.25;55.95
16793;BME280;8513;42.662;23.350;2022-12-18T13:41:24;96222.06;;;5.37;55.08
16793;BME280;8513;42.662;23.350;2022-12-18T13:43:54;96229.38;;;5.46;55.28
16793;BME280;8513;42.662;23.350;2022-12-18T13:46:47;96231.53;;;5.53;55.14
16793;BME280;8513;42.662;23.350;2022-12-18T13:51:44;96238.41;;;5.69;54.37
16793;BME280;8513;42.662;23.350;2022-12-18T13:54:34;96244.28;;;5.58;54.97
16793;BME280;8513;42.662;23.350;2022-12-18T13:57:01;96240.91;;;5.42;55.32
16793;BME280;8513;42.662;23.350;2022-12-18T13:59:36;96242.03;;;5.52;55.74
16793;BME280;8513;42.662;23.350;2022-12-18T14:02:21;96247.53;;;5.47;55.82
16793;BME280;8513;42.662;23.350;2022-12-18T14:04:49;96250.88;;;5.35;56.21
16793;BME280;8513;42.662;23.350;2022-12-18T14:07:18;96254.31;;;5.36;56.05
16793;BME280;8513;42.662;23.350;2022-12-18T14:09:53;96250.97;;;5.48;55.03
16793;BME280;8513;42.662;23.350;2022-12-18T14:12:26;96259.19;;;5.56;54.70
16793;BME280;8513;42.662;23.350;2022-12-18T14:17:58;96258.94;;;5.75;53.92
16793;BME280;8513;42.662;23.350;2022-12-18T14:20:26;96265.00;;;5.75;53.30
16793;BME280;8513;42.662;23.350;2022-12-18T14:22:52;96267.56;;;5.61;53.32
16793;BME280;8513;42.662;23.350;2022-12-18T14:25:23;96270.94;;;5.63;52.33
16793;BME280;8513;42.662;23.350;2022-12-18T14:27:53;96271.50;;;5.54;52.88
16793;BME280;8513;42.662;23.350;2022-12-18T14:33:19;96271.44;;;5.40;52.94
16793;BME280;8513;42.662;23.350;2022-12-18T14:39:18;96268.75;;;5.41;52.12
16793;BME280;8513;42.662;23.350;2022-12-18T14:41:43;96269.59;;;5.42;52.37
16793;BME280;8513;42.662;23.350;2022-12-18T14:44:12;96264.56;;;5.53;51.98
16793;BME280;8513;42.662;23.350;2022-12-18T14:46:45;96260.94;;;5.56;51.71
16793;BME280;8513;42.662;23.350;2022-12-18T14:49:25;96260.47;;;5.35;51.69
16793;BME280;8513;42.662;23.350;2022-12-18T14:51:57;96266.56;;;5.19;52.39
16793;BME280;8513;42.662;23.350;2022-12-18T14:54:25;96264.59;;;5.23;52.01
16793;BME280;8513;42.662;23.350;2022-12-18T14:56:59;96266.94;;;5.27;51.59
16793;BME280;8513;42.662;23.350;2022-12-18T14:59:26;96274.41;;;5.34;51.58
16793;BME280;8513;42.662;23.350;2022-12-18T15:04:32;96276.13;;;5.49;50.88
16793;BME280;8513;42.662;23.350;2022-12-18T15:09:43;96272.56;;;5.36;50.68
16793;BME280;8513;42.662;23.350;2022-12-18T15:12:34;96277.16;;;5.46;50.73
16793;BME280;8513;42.662;23.350;2022-12-18T15:15:00;96269.78;;;5.53;50.65
16793;BME280;8513;42.662;23.350;2022-12-18T15:17:26;96271.94;;;5.46;50.25
16793;BME280;8513;42.662;23.350;2022-12-18T15:19:59;96277.59;;;5.39;50.64
16793;BME280;8513;42.662;23.350;2022-12-18T15:22:26;96281.25;;;5.50;50.33
16793;BME280;8513;42.662;23.350;2022-12-18T15:24:53;96282.59;;;5.27;49.72
16793;BME280;8513;42.662;23.350;2022-12-18T15:32:41;96298.38;;;4.94;50.79